Time;durP1;ratioP1;P1;durP2;ratioP2;P2;SDS_P1;SDS_P2;PMS_P1;PMS_P2;Temp;Humidity;BMP_temperature;BMP_pressure;BME280_temperature;BME280_humidity;BME280_pressure;Samples;Min_cycle;Max_cycle;Signal;HPM_P1;HPM_P2
2023/04/04 00:02:07;;;;;;;49.88;24.58;;;;;;;;;;5016196;28;20117;-81
2023/04/04 00:04:35;;;;;;;52.55;24.55;;;;;;;;;;4996637;28;20026;-81
2023/04/04 00:07:01;;;;;;;42.25;21.27;;;;;;;;;;5033545;28;20116;-82
2023/04/04 00:09:26;;;;;;;46.15;20.65;;;;;;;;;;5016013;28;20149;-81
2023/04/04 00:11:52;;;;;;;43.42;21.50;;;;;;;;;;4999922;28;20049;-81
2023/04/04 00:14:18;;;;;;;48.40;26.15;;;;;;;;;;5016119;28;20075;-82
2023/04/04 00:16:43;;;;;;;47.45;24.45;;;;;;;;;;4999543;28;20032;-82
2023/04/04 00:19:13;;;;;;;35.20;15.85;;;;;;;;;;4983008;28;20071;-83
2023/04/04 00:21:38;;;;;;;46.15;21.90;;;;;;;;;;5016494;28;20029;-83
2023/04/04 00:24:04;;;;;;;45.88;23.08;;;;;;;;;;5015740;28;20032;-83
2023/04/04 00:26:29;;;;;;;40.53;19.65;;;;;;;;;;4999627;28;20032;-83
2023/04/04 00:28:55;;;;;;;26.73;13.55;;;;;;;;;;4999324;28;20026;-82
2023/04/04 00:31:20;;;;;;;37.20;18.23;;;;;;;;;;4999577;28;20029;-82
2023/04/04 00:33:46;;;;;;;34.65;17.27;;;;;;;;;;4999445;28;20359;-82
2023/04/04 00:36:11;;;;;;;34.45;16.30;;;;;;;;;;5015860;28;20025;-82
2023/04/04 00:38:37;;;;;;;25.25;12.90;;;;;;;;;;4999858;28;20037;-81
2023/04/04 00:41:02;;;;;;;29.60;15.00;;;;;;;;;;4983438;28;20028;-83
2023/04/04 00:43:28;;;;;;;28.50;13.65;;;;;;;;;;4999536;28;20108;-84
2023/04/04 00:45:53;;;;;;;25.80;12.57;;;;;;;;;;5002027;28;20421;-82
2023/04/04 00:48:19;;;;;;;25.80;13.95;;;;;;;;;;5002938;28;20033;-82
2023/04/04 00:50:44;;;;;;;25.17;12.95;;;;;;;;;;5019661;28;20032;-83
2023/04/04 00:53:10;;;;;;;28.88;13.60;;;;;;;;;;5003308;28;20026;-83
2023/04/04 00:55:37;;;;;;;30.92;16.15;;;;;;;;;;5003291;28;20025;-84
2023/04/04 00:58:03;;;;;;;27.98;13.40;;;;;;;;;;4987426;28;20057;-83
2023/04/04 01:00:30;;;;;;;24.17;12.07;;;;;;;;;;5003406;28;20120;-85
2023/04/04 01:02:56;;;;;;;37.42;16.00;;;;;;;;;;5019853;28;20439;-80
2023/04/04 01:05:22;;;;;;;31.27;13.65;;;;;;;;;;5012817;28;20037;-83
2023/04/04 01:07:47;;;;;;;28.60;13.25;;;;;;;;;;5002746;28;20025;-84
2023/04/04 01:10:13;;;;;;;27.33;13.75;;;;;;;;;;4986900;28;20485;-82
2023/04/04 01:12:39;;;;;;;35.78;15.85;;;;;;;;;;4986634;28;20033;-82
2023/04/04 01:15:05;;;;;;;28.92;14.20;;;;;;;;;;5019046;28;20395;-84
2023/04/04 01:17:30;;;;;;;29.42;14.50;;;;;;;;;;5002565;28;20029;-83
2023/04/04 01:20:25;;;;;;;36.33;15.20;;;;;;;;;;5002575;28;20025;-82
2023/04/04 01:22:51;;;;;;;38.13;14.32;;;;;;;;;;5001752;28;20363;-83
2023/04/04 01:25:17;;;;;;;28.88;13.65;;;;;;;;;;4986367;28;20131;-82
2023/04/04 01:27:43;;;;;;;30.58;13.88;;;;;;;;;;5002762;28;20037;-82
2023/04/04 01:30:09;;;;;;;28.95;13.60;;;;;;;;;;5003076;28;20446;-82
2023/04/04 01:32:49;;;;;;;36.10;12.35;;;;;;;;;;5018895;28;20209;-84
2023/04/04 01:35:32;;;;;;;28.42;15.43;;;;;;;;;;5036290;28;20036;-82
2023/04/04 01:38:14;;;;;;;22.88;11.85;;;;;;;;;;5002375;28;20367;-83
2023/04/04 01:40:40;;;;;;;32.92;12.95;;;;;;;;;;4986721;28;20039;-82
2023/04/04 01:43:08;;;;;;;22.85;11.23;;;;;;;;;;5002396;28;20021;-82
2023/04/04 01:45:34;;;;;;;23.38;12.20;;;;;;;;;;5018615;28;20028;-82
2023/04/04 01:47:59;;;;;;;21.60;10.57;;;;;;;;;;5002501;28;20083;-82
2023/04/04 01:50:25;;;;;;;20.45;10.65;;;;;;;;;;5036132;28;20025;-82
2023/04/04 01:52:51;;;;;;;18.55;9.38;;;;;;;;;;5018495;28;20018;-83
2023/04/04 01:55:17;;;;;;;21.08;10.07;;;;;;;;;;5002172;28;20024;-83
2023/04/04 01:57:42;;;;;;;12.45;5.85;;;;;;;;;;5017291;28;20026;-83
2023/04/04 02:00:09;;;;;;;18.30;8.00;;;;;;;;;;5002186;28;20432;-83
2023/04/04 02:02:38;;;;;;;19.88;10.52;;;;;;;;;;5018399;28;20032;-82
2023/04/04 02:05:03;;;;;;;17.73;9.68;;;;;;;;;;5036092;28;20025;-82
2023/04/04 02:07:29;;;;;;;17.10;8.52;;;;;;;;;;5015511;28;20041;-84
2023/04/04 02:09:54;;;;;;;21.20;9.60;;;;;;;;;;5018227;28;20065;-82
2023/04/04 02:12:25;;;;;;;18.73;9.60;;;;;;;;;;5003145;28;20037;-82
2023/04/04 02:14:51;;;;;;;16.95;8.15;;;;;;;;;;5018682;28;20125;-81
2023/04/04 02:17:17;;;;;;;20.02;9.40;;;;;;;;;;5035705;28;20175;-83
2023/04/04 02:19:42;;;;;;;20.25;11.60;;;;;;;;;;5018033;28;20026;-81
2023/04/04 02:22:08;;;;;;;15.88;9.00;;;;;;;;;;5017984;28;20443;-83
2023/04/04 02:24:35;;;;;;;23.42;10.57;;;;;;;;;;5017589;28;20044;-84
2023/04/04 02:27:01;;;;;;;24.35;7.78;;;;;;;;;;5018250;28;20040;-83
2023/04/04 02:29:26;;;;;;;16.92;8.77;;;;;;;;;;5001108;28;20446;-84
2023/04/04 02:31:52;;;;;;;11.50;6.20;;;;;;;;;;4985470;28;20033;-84
2023/04/04 02:34:17;;;;;;;22.80;7.95;;;;;;;;;;4985121;28;20030;-84
2023/04/04 02:36:43;;;;;;;11.68;6.53;;;;;;;;;;5017748;28;20061;-84
2023/04/04 02:39:08;;;;;;;14.43;7.43;;;;;;;;;;5018711;28;20041;-84
2023/04/04 02:41:34;;;;;;;17.40;7.07;;;;;;;;;;5003843;28;20087;-84
2023/04/04 02:44:00;;;;;;;21.10;7.20;;;;;;;;;;5018284;28;20044;-83
2023/04/04 02:46:25;;;;;;;19.08;8.30;;;;;;;;;;5004284;28;20022;-84
2023/04/04 02:48:50;;;;;;;18.17;7.53;;;;;;;;;;5020285;28;20029;-82
2023/04/04 02:51:16;;;;;;;9.38;4.55;;;;;;;;;;5020258;28;20061;-83
2023/04/04 02:53:42;;;;;;;13.50;7.30;;;;;;;;;;5035694;28;20021;-83
2023/04/04 02:56:07;;;;;;;13.60;6.85;;;;;;;;;;5001332;28;20037;-82
2023/04/04 02:58:33;;;;;;;17.13;7.75;;;;;;;;;;5000512;28;20037;-82
2023/04/04 03:00:59;;;;;;;15.55;6.82;;;;;;;;;;5000624;28;20152;-84
2023/04/04 03:03:24;;;;;;;15.85;7.80;;;;;;;;;;5000958;28;20025;-81
2023/04/04 03:05:50;;;;;;;12.85;7.15;;;;;;;;;;5000677;28;20037;-84
2023/04/04 03:08:16;;;;;;;16.63;7.95;;;;;;;;;;4999790;28;20040;-84
2023/04/04 03:10:41;;;;;;;18.40;8.25;;;;;;;;;;4998989;28;20029;-82
2023/04/04 03:13:07;;;;;;;20.95;8.32;;;;;;;;;;5016513;28;20068;-84
2023/04/04 03:15:33;;;;;;;16.48;7.60;;;;;;;;;;5000437;28;20403;-84
2023/04/04 03:17:59;;;;;;;14.52;7.03;;;;;;;;;;5000710;28;20087;-84
2023/04/04 03:20:25;;;;;;;18.60;8.32;;;;;;;;;;5034385;28;20029;-84
2023/04/04 03:22:50;;;;;;;14.48;7.22;;;;;;;;;;5034292;28;20442;-84
2023/04/04 03:25:16;;;;;;;16.23;7.38;;;;;;;;;;5016268;28;20068;-84
2023/04/04 03:27:41;;;;;;;17.42;7.18;;;;;;;;;;5016563;28;20026;-84
2023/04/04 03:30:07;;;;;;;15.88;7.88;;;;;;;;;;5016616;28;20021;-84
2023/04/04 03:32:33;;;;;;;15.30;7.70;;;;;;;;;;5016384;28;20449;-86
2023/04/04 03:34:59;;;;;;;16.80;8.60;;;;;;;;;;4983964;28;20060;-85
2023/04/04 03:37:24;;;;;;;16.10;8.07;;;;;;;;;;5000213;28;20450;-86
2023/04/04 03:39:50;;;;;;;21.40;8.40;;;;;;;;;;5016604;28;20033;-85
2023/04/04 03:42:15;;;;;;;18.42;9.00;;;;;;;;;;4983972;28;20182;-85
2023/04/04 03:44:41;;;;;;;20.27;8.50;;;;;;;;;;5000135;28;20434;-85
2023/04/04 03:47:07;;;;;;;18.85;8.55;;;;;;;;;;4983965;28;20029;-85
2023/04/04 03:49:33;;;;;;;22.23;8.23;;;;;;;;;;4984246;28;20096;-85
2023/04/04 03:51:58;;;;;;;20.17;8.18;;;;;;;;;;5016539;28;20029;-85
2023/04/04 03:54:26;;;;;;;23.85;7.38;;;;;;;;;;4984112;28;20480;-85
2023/04/04 03:56:51;;;;;;;17.05;7.65;;;;;;;;;;4999256;28;20045;-85
2023/04/04 03:59:17;;;;;;;12.85;6.63;;;;;;;;;;5034063;28;20037;-84
2023/04/04 04:01:43;;;;;;;9.88;5.35;;;;;;;;;;5034006;28;20036;-86
2023/04/04 04:04:08;;;;;;;12.98;5.82;;;;;;;;;;4999849;28;20120;-85
2023/04/04 04:06:37;;;;;;;15.57;6.07;;;;;;;;;;5016143;28;20135;-86
2023/04/04 04:09:05;;;;;;;15.07;6.63;;;;;;;;;;5020926;28;20025;-85
2023/04/04 04:11:36;;;;;;;19.50;7.20;;;;;;;;;;5003806;28;20347;-85
2023/04/04 04:14:02;;;;;;;36.92;11.85;;;;;;;;;;5022098;28;20433;-84
2023/04/04 04:16:31;;;;;;;21.92;8.35;;;;;;;;;;5053463;28;20025;-84
2023/04/04 04:18:57;;;;;;;19.65;8.20;;;;;;;;;;5037345;28;20043;-84
2023/04/04 04:22:10;;;;;;;13.05;6.05;;;;;;;;;;5023799;28;20362;-87
2023/04/04 04:24:36;;;;;;;15.80;7.57;;;;;;;;;;5031654;28;20028;-86
2023/04/04 04:27:19;;;;;;;17.90;7.32;;;;;;;;;;5052188;28;20048;-85
2023/04/04 04:29:44;;;;;;;19.52;7.40;;;;;;;;;;5054893;28;20036;-85
2023/04/04 04:32:18;;;;;;;10.70;5.75;;;;;;;;;;5039611;28;20416;-84
2023/04/04 04:34:43;;;;;;;13.05;6.22;;;;;;;;;;5040555;28;20033;-84
2023/04/04 04:37:11;;;;;;;11.27;6.20;;;;;;;;;;5025293;28;20035;-84
2023/04/04 04:39:37;;;;;;;12.43;4.95;;;;;;;;;;5004149;28;20034;-84
2023/04/04 04:42:05;;;;;;;12.00;5.90;;;;;;;;;;5017923;28;20031;-85
2023/04/04 04:44:43;;;;;;;13.63;7.55;;;;;;;;;;4990357;28;20080;-85
2023/04/04 04:47:11;;;;;;;12.70;6.50;;;;;;;;;;5026202;28;20033;-86
2023/04/04 04:49:37;;;;;;;13.13;7.47;;;;;;;;;;5025022;28;20025;-83
2023/04/04 04:52:03;;;;;;;15.40;6.75;;;;;;;;;;5028568;28;20089;-84
2023/04/04 04:54:42;;;;;;;9.27;5.15;;;;;;;;;;5021183;28;20020;-83
2023/04/04 05:17:23;;;;;;;11.88;5.50;;;;;;;;;;5041050;23;20065;-82
2023/04/04 05:33:40;;;;;;;13.07;5.93;;;;;;;;;;5016553;28;20072;-82
2023/04/04 06:07:17;;;;;;;14.48;6.40;;;;;;;;;;5055913;28;20055;-87
2023/04/04 06:10:04;;;;;;;13.63;6.70;;;;;;;;;;5018172;28;20046;-85
2023/04/04 06:15:57;;;;;;;15.88;7.60;;;;;;;;;;4986736;23;20169;-85
2023/04/04 06:19:13;;;;;;;;;;;;;;;;;;;;;
2023/04/04 06:25:13;;;;;;;13.23;6.85;;;;;;;;;;5273209;22;20086;-86
2023/04/04 06:30:23;;;;;;;10.93;5.13;;;;;;;;;;4964371;22;20488;-84
2023/04/04 06:32:48;;;;;;;13.85;6.13;;;;;;;;;;5043165;28;20026;-81
2023/04/04 06:42:17;;;;;;;6.72;3.03;;;;;;;;;;5053122;22;20079;-83
2023/04/04 06:44:50;;;;;;;8.63;3.72;;;;;;;;;;5073330;28;20037;-83
2023/04/04 06:47:16;;;;;;;6.55;3.42;;;;;;;;;;5053934;28;20032;-84
2023/04/04 06:49:41;;;;;;;6.47;3.58;;;;;;;;;;5055148;28;20032;-83
2023/04/04 06:55:39;;;;;;;6.50;3.50;;;;;;;;;;4988229;28;20093;-83
2023/04/04 06:58:05;;;;;;;6.10;2.45;;;;;;;;;;5017284;28;20040;-83
2023/04/04 07:00:30;;;;;;;3.50;2.30;;;;;;;;;;5048813;28;20025;-81
2023/04/04 07:03:11;;;;;;;3.63;2.42;;;;;;;;;;5047364;28;20415;-84
2023/04/04 07:11:30;;;;;;;7.53;3.45;;;;;;;;;;5048061;28;20122;-82
2023/04/04 07:14:08;;;;;;;5.15;2.90;;;;;;;;;;5010552;28;20084;-84
2023/04/04 07:16:35;;;;;;;4.53;2.65;;;;;;;;;;4998286;28;20029;-84
2023/04/04 07:19:01;;;;;;;5.80;2.63;;;;;;;;;;5039750;28;20382;-84
2023/04/04 07:22:05;;;;;;;8.13;3.70;;;;;;;;;;5031081;28;20052;-83
2023/04/04 07:24:31;;;;;;;5.07;2.63;;;;;;;;;;5027674;28;20136;-84
2023/04/04 07:26:56;;;;;;;6.55;3.65;;;;;;;;;;5028297;28;20109;-82
2023/04/04 07:29:26;;;;;;;6.43;3.80;;;;;;;;;;5021774;28;20447;-83
2023/04/04 07:31:51;;;;;;;9.90;5.30;;;;;;;;;;5042060;28;20071;-83
2023/04/04 07:34:32;;;;;;;11.48;5.43;;;;;;;;;;5018360;28;20375;-83
2023/04/04 07:36:58;;;;;;;8.95;4.13;;;;;;;;;;5037436;28;20466;-84
2023/04/04 07:39:30;;;;;;;8.23;4.05;;;;;;;;;;5053836;28;20040;-84
2023/04/04 07:42:34;;;;;;;7.75;4.05;;;;;;;;;;5038853;28;20029;-86
2023/04/04 07:48:34;;;;;;;11.07;4.00;;;;;;;;;;4989385;28;20100;-82
2023/04/04 07:51:07;;;;;;;11.27;4.05;;;;;;;;;;4972492;28;20141;-84
2023/04/04 07:56:09;;;;;;;6.55;3.65;;;;;;;;;;3828354;22;20059;-81
2023/04/04 07:58:40;;;;;;;6.72;3.20;;;;;;;;;;5035676;22;20697;-87
2023/04/04 08:04:27;;;;;;;9.25;3.65;;;;;;;;;;4980399;23;20053;-86
2023/04/04 08:07:37;;;;;;;7.35;4.25;;;;;;;;;;5021935;28;20049;-85
2023/04/04 08:14:14;;;;;;;9.80;4.30;;;;;;;;;;5099853;22;20115;-86
2023/04/04 08:19:21;;;;;;;6.20;2.90;;;;;;;;;;5203547;22;20269;-86
2023/04/04 08:21:46;;;;;;;4.32;2.60;;;;;;;;;;5352205;22;20113;-87
2023/04/04 08:38:25;;;;;;;8.57;3.22;;;;;;;;;;5128923;22;20065;-85
2023/04/04 09:27:14;;;;;;;10.25;4.90;;;;;;;;;;5063189;28;20031;-87
2023/04/04 09:38:54;;;;;;;5.55;3.13;;;;;;;;;;5415512;23;20056;-87
2023/04/04 09:41:20;;;;;;;8.85;3.30;;;;;;;;;;5075902;28;20335;-84
2023/04/04 09:44:37;;;;;;;8.23;3.92;;;;;;;;;;5056830;28;20059;-87
2023/04/04 09:49:50;;;;;;;8.00;4.40;;;;;;;;;;5124010;22;20055;-85
2023/04/04 09:52:21;;;;;;;7.13;4.95;;;;;;;;;;5098501;28;20036;-86
2023/04/04 09:54:59;;;;;;;5.72;3.30;;;;;;;;;;5091358;28;20056;-84
2023/04/04 09:57:30;;;;;;;4.65;2.38;;;;;;;;;;5101975;28;20397;-85
2023/04/04 09:59:59;;;;;;;;;;;;;;;;;;5103284;28;20032;-85
2023/04/04 10:02:32;;;;;;;2.95;2.20;;;;;;;;;;5103244;28;19912;-85
2023/04/04 10:04:58;;;;;;;3.92;2.40;;;;;;;;;;5066958;28;20046;-85
2023/04/04 10:07:28;;;;;;;4.90;3.00;;;;;;;;;;5097406;28;20028;-85
2023/04/04 10:09:53;;;;;;;5.32;2.88;;;;;;;;;;5081678;28;20088;-87
2023/04/04 10:12:21;;;;;;;3.63;2.40;;;;;;;;;;5089716;28;20110;-85
2023/04/04 10:14:46;;;;;;;5.07;2.97;;;;;;;;;;5083878;28;20071;-85
2023/04/04 10:17:15;;;;;;;5.47;3.00;;;;;;;;;;5079252;28;20024;-85
2023/04/04 10:19:40;;;;;;;12.90;6.57;;;;;;;;;;5073848;28;20427;-85
2023/04/04 10:22:09;;;;;;;13.38;6.32;;;;;;;;;;5084743;28;20028;-86
2023/04/04 10:24:35;;;;;;;9.32;5.20;;;;;;;;;;5078525;28;20100;-87
2023/04/04 10:27:04;;;;;;;12.55;6.18;;;;;;;;;;5070161;28;20050;-84
2023/04/04 10:29:37;;;;;;;8.68;4.90;;;;;;;;;;5055872;28;20089;-86
2023/04/04 10:32:06;;;;;;;4.10;2.55;;;;;;;;;;5069982;28;20032;-86
2023/04/04 10:34:42;;;;;;;5.40;3.35;;;;;;;;;;5041430;28;20080;-86
2023/04/04 10:37:10;;;;;;;6.07;3.40;;;;;;;;;;5046407;28;20052;-84
2023/04/04 10:40:01;;;;;;;3.65;2.10;;;;;;;;;;5042426;28;20070;-86
2023/04/04 10:42:27;;;;;;;6.82;3.08;;;;;;;;;;5047806;28;20045;-87
2023/04/04 10:44:53;;;;;;;10.73;3.58;;;;;;;;;;5039628;28;20029;-83
2023/04/04 10:47:22;;;;;;;14.45;6.78;;;;;;;;;;5056021;28;20025;-85
2023/04/04 10:49:48;;;;;;;9.13;3.88;;;;;;;;;;5023941;28;1224073;-85
2023/04/04 10:52:18;;;;;;;5.90;2.00;;;;;;;;;;5058755;28;20024;-85
2023/04/04 10:54:43;;;;;;;5.30;2.42;;;;;;;;;;5062643;28;20024;-84
2023/04/04 10:57:09;;;;;;;7.78;3.85;;;;;;;;;;5063413;28;20035;-85
2023/04/04 10:59:59;;;;;;;6.53;3.08;;;;;;;;;;5070458;28;20059;-85
2023/04/04 11:02:42;;;;;;;8.13;3.90;;;;;;;;;;5071622;28;20048;-85
2023/04/04 11:05:17;;;;;;;3.70;2.42;;;;;;;;;;5055054;28;20127;-84
2023/04/04 11:07:44;;;;;;;5.82;3.08;;;;;;;;;;5073031;28;20025;-85
2023/04/04 11:10:13;;;;;;;5.25;3.10;;;;;;;;;;5074158;28;20409;-85
2023/04/04 11:12:44;;;;;;;5.63;2.88;;;;;;;;;;5074596;28;20055;-84
2023/04/04 11:15:10;;;;;;;7.93;3.83;;;;;;;;;;5056750;28;20043;-83
2023/04/04 11:17:42;;;;;;;8.63;2.67;;;;;;;;;;5083697;28;20050;-85
2023/04/04 11:20:09;;;;;;;5.38;2.75;;;;;;;;;;5074152;28;20094;-84
2023/04/04 11:22:35;;;;;;;2.40;1.90;;;;;;;;;;5069043;28;20036;-82
2023/04/04 11:25:36;;;;;;;3.35;2.00;;;;;;;;;;5071435;28;20032;-84
2023/04/04 11:28:11;;;;;;;4.57;2.22;;;;;;;;;;5069676;28;20020;-85
2023/04/04 11:30:43;;;;;;;2.97;1.70;;;;;;;;;;5074089;28;20484;-85
2023/04/04 11:33:09;;;;;;;1.98;1.60;;;;;;;;;;5066125;28;20036;-84
2023/04/04 11:35:39;;;;;;;4.10;2.15;;;;;;;;;;5054437;28;20036;-84
2023/04/04 11:38:11;;;;;;;1.87;1.43;;;;;;;;;;5072206;28;20032;-84
2023/04/04 11:40:40;;;;;;;2.55;1.45;;;;;;;;;;5072436;28;20616;-83
2023/04/04 11:43:09;;;;;;;2.08;1.48;;;;;;;;;;5072007;28;20398;-84
2023/04/04 11:45:36;;;;;;;7.37;3.07;;;;;;;;;;5071128;28;20032;-84
2023/04/04 11:48:03;;;;;;;3.03;1.95;;;;;;;;;;5080928;28;20449;-85
2023/04/04 11:50:38;;;;;;;2.45;1.40;;;;;;;;;;5079210;28;20068;-84
2023/04/04 11:53:06;;;;;;;2.15;1.00;;;;;;;;;;5071276;28;20072;-85
2023/04/04 11:55:31;;;;;;;1.95;0.93;;;;;;;;;;5056628;28;20513;-85
2023/04/04 11:58:05;;;;;;;2.28;1.30;;;;;;;;;;5095218;28;20114;-84
2023/04/04 12:00:31;;;;;;;1.85;1.05;;;;;;;;;;5065830;28;20038;-85
2023/04/04 12:02:57;;;;;;;6.65;2.70;;;;;;;;;;5074735;28;20105;-85
2023/04/04 12:05:22;;;;;;;3.80;1.83;;;;;;;;;;5076871;28;20416;-82
2023/04/04 12:07:48;;;;;;;4.55;2.42;;;;;;;;;;5077029;28;20527;-85
2023/04/04 12:10:14;;;;;;;4.30;2.75;;;;;;;;;;5076128;28;20437;-85
2023/04/04 12:12:40;;;;;;;10.15;5.88;;;;;;;;;;5076344;28;20024;-84
2023/04/04 12:15:07;;;;;;;13.23;6.68;;;;;;;;;;5076928;28;20020;-85
2023/04/04 12:17:37;;;;;;;16.88;7.72;;;;;;;;;;5076694;28;20036;-85
2023/04/04 12:20:03;;;;;;;22.02;9.32;;;;;;;;;;5079218;28;20123;-85
2023/04/04 12:22:34;;;;;;;23.17;10.45;;;;;;;;;;5096935;28;20406;-85
2023/04/04 12:24:59;;;;;;;30.27;12.30;;;;;;;;;;5087296;28;20076;-85
2023/04/04 12:27:25;;;;;;;34.72;12.90;;;;;;;;;;5094999;28;20466;-85
2023/04/04 12:29:50;;;;;;;29.17;10.93;;;;;;;;;;5042947;28;20020;-86
2023/04/04 12:32:17;;;;;;;15.73;7.22;;;;;;;;;;5076044;28;20020;-84
2023/04/04 12:34:43;;;;;;;17.77;6.82;;;;;;;;;;5059405;28;20169;-84
2023/04/04 12:37:10;;;;;;;13.63;6.82;;;;;;;;;;5058944;28;20085;-84
2023/04/04 12:39:35;;;;;;;11.35;5.55;;;;;;;;;;5071149;28;20028;-85
2023/04/04 12:42:02;;;;;;;13.23;7.13;;;;;;;;;;5062754;28;20038;-85
2023/04/04 12:44:38;;;;;;;15.05;7.72;;;;;;;;;;5081726;28;20081;-84
2023/04/04 12:47:07;;;;;;;22.95;6.97;;;;;;;;;;5098178;28;20124;-84
2023/04/04 12:49:53;;;;;;;22.90;10.52;;;;;;;;;;5080247;28;20047;-83
2023/04/04 12:52:25;;;;;;;21.05;8.85;;;;;;;;;;5096929;28;20046;-82
2023/04/04 12:54:51;;;;;;;15.63;8.25;;;;;;;;;;5100573;28;20122;-83
2023/04/04 12:57:20;;;;;;;17.38;8.32;;;;;;;;;;5119979;28;20055;-84
2023/04/04 12:59:46;;;;;;;21.02;9.27;;;;;;;;;;5091389;28;20020;-83
2023/04/04 13:02:13;;;;;;;29.45;9.38;;;;;;;;;;5089885;28;20451;-84
2023/04/04 13:04:39;;;;;;;18.70;9.05;;;;;;;;;;5088732;28;20027;-84
2023/04/04 13:07:05;;;;;;;34.03;13.13;;;;;;;;;;5126739;28;20028;-82
2023/04/04 13:09:31;;;;;;;43.58;16.23;;;;;;;;;;5108410;28;20039;-82
2023/04/04 13:12:03;;;;;;;27.38;11.50;;;;;;;;;;5103429;28;20020;-84
2023/04/04 13:14:54;;;;;;;25.30;12.20;;;;;;;;;;5122593;28;20032;-84
2023/04/04 13:17:20;;;;;;;15.32;9.30;;;;;;;;;;5118655;28;20475;-83
2023/04/04 13:19:45;;;;;;;14.35;9.00;;;;;;;;;;5125101;28;20046;-82
2023/04/04 13:22:11;;;;;;;13.88;8.07;;;;;;;;;;5130559;28;20032;-84
2023/04/04 13:24:36;;;;;;;18.75;10.63;;;;;;;;;;5117419;28;20430;-85
2023/04/04 13:27:02;;;;;;;18.55;11.30;;;;;;;;;;5117456;28;20524;-85
2023/04/04 13:29:27;;;;;;;22.15;10.40;;;;;;;;;;5117579;28;20376;-85
2023/04/04 13:31:53;;;;;;;22.02;11.45;;;;;;;;;;5117298;28;20031;-83
2023/04/04 13:34:20;;;;;;;29.75;13.70;;;;;;;;;;5117599;28;20071;-84
2023/04/04 13:36:46;;;;;;;31.90;15.82;;;;;;;;;;5117247;28;20043;-83
2023/04/04 13:39:11;;;;;;;35.35;19.05;;;;;;;;;;5098958;28;20035;-84
2023/04/04 13:41:38;;;;;;;25.98;13.15;;;;;;;;;;5106523;28;20102;-81
2023/04/04 13:44:04;;;;;;;21.73;9.90;;;;;;;;;;5124848;28;20029;-83
2023/04/04 13:46:29;;;;;;;23.42;12.60;;;;;;;;;;5117212;28;20024;-83
2023/04/04 13:48:54;;;;;;;22.55;12.48;;;;;;;;;;5117113;28;20445;-85
2023/04/04 13:51:20;;;;;;;29.35;13.13;;;;;;;;;;5098646;28;20023;-84
2023/04/04 13:53:45;;;;;;;34.92;14.45;;;;;;;;;;5115852;28;20038;-82
2023/04/04 13:56:11;;;;;;;29.83;13.32;;;;;;;;;;5098675;28;20038;-83
2023/04/04 13:58:36;;;;;;;27.35;13.27;;;;;;;;;;5099808;28;20732;-85
2023/04/04 14:01:05;;;;;;;31.35;14.80;;;;;;;;;;5078490;28;20028;-83
2023/04/04 14:03:31;;;;;;;25.05;11.63;;;;;;;;;;5091907;28;20016;-83
2023/04/04 14:05:56;;;;;;;22.30;10.50;;;;;;;;;;5079131;28;20050;-84
2023/04/04 14:08:22;;;;;;;16.20;9.00;;;;;;;;;;5096363;28;20032;-83
2023/04/04 14:10:47;;;;;;;17.88;9.32;;;;;;;;;;5096223;28;20020;-85
2023/04/04 14:13:13;;;;;;;23.55;11.95;;;;;;;;;;5096383;28;20035;-84
2023/04/04 14:15:38;;;;;;;19.17;10.30;;;;;;;;;;5078019;28;20173;-84
2023/04/04 14:18:04;;;;;;;22.75;11.77;;;;;;;;;;5077828;28;20047;-83
2023/04/04 14:20:29;;;;;;;18.20;10.50;;;;;;;;;;5096854;28;20417;-84
2023/04/04 14:22:55;;;;;;;16.52;9.75;;;;;;;;;;5078392;28;20016;-84
2023/04/04 14:25:21;;;;;;;15.05;9.18;;;;;;;;;;5109023;28;20036;-85
2023/04/04 14:27:46;;;;;;;15.30;9.57;;;;;;;;;;5095918;28;20031;-84
2023/04/04 14:30:12;;;;;;;18.50;9.68;;;;;;;;;;5096298;28;20028;-84
2023/04/04 14:32:37;;;;;;;13.82;8.77;;;;;;;;;;5077789;28;20368;-85
2023/04/04 14:35:03;;;;;;;15.15;9.13;;;;;;;;;;5095326;28;20020;-83
2023/04/04 14:37:29;;;;;;;16.50;9.15;;;;;;;;;;5095626;28;20078;-83
2023/04/04 14:39:55;;;;;;;16.90;9.73;;;;;;;;;;5095956;28;20047;-85
2023/04/04 14:42:20;;;;;;;18.20;10.70;;;;;;;;;;5095412;28;20417;-84
2023/04/04 14:44:45;;;;;;;17.38;9.52;;;;;;;;;;5083401;28;20024;-85
2023/04/04 14:47:11;;;;;;;15.93;8.93;;;;;;;;;;5107102;28;20044;-84
2023/04/04 14:49:36;;;;;;;13.60;8.57;;;;;;;;;;5095092;28;20087;-84
2023/04/04 14:52:02;;;;;;;15.50;9.27;;;;;;;;;;5095127;28;20138;-83
2023/04/04 14:54:28;;;;;;;17.02;10.15;;;;;;;;;;5095538;28;20107;-83
2023/04/04 14:56:53;;;;;;;21.58;12.10;;;;;;;;;;5095218;28;20475;-85
2023/04/04 14:59:18;;;;;;;34.00;15.82;;;;;;;;;;5093491;28;20609;-85
2023/04/04 15:01:44;;;;;;;25.15;12.88;;;;;;;;;;5095138;28;20428;-84
2023/04/04 15:04:10;;;;;;;25.95;13.25;;;;;;;;;;5094744;28;20043;-84
2023/04/04 15:06:36;;;;;;;21.13;11.82;;;;;;;;;;5099767;28;20354;-85
2023/04/04 15:09:04;;;;;;;20.92;12.45;;;;;;;;;;5098737;28;20031;-85
2023/04/04 15:11:29;;;;;;;27.42;12.95;;;;;;;;;;5095304;28;20028;-85
2023/04/04 15:13:55;;;;;;;29.13;12.98;;;;;;;;;;5095012;28;20545;-84
2023/04/04 15:16:21;;;;;;;27.92;12.23;;;;;;;;;;5076699;28;20035;-84
2023/04/04 15:18:46;;;;;;;28.20;15.70;;;;;;;;;;5095010;28;20138;-83
2023/04/04 15:21:12;;;;;;;28.92;15.30;;;;;;;;;;5094737;28;20032;-84
2023/04/04 15:23:37;;;;;;;26.08;13.73;;;;;;;;;;5094909;28;20028;-85
2023/04/04 15:26:04;;;;;;;25.52;13.07;;;;;;;;;;5094939;28;20024;-84
2023/04/04 15:28:29;;;;;;;24.70;12.68;;;;;;;;;;5104913;28;20030;-85
2023/04/04 15:30:55;;;;;;;26.73;12.77;;;;;;;;;;5095198;28;20119;-85
2023/04/04 15:33:21;;;;;;;20.23;10.95;;;;;;;;;;5060076;28;20365;-86
2023/04/04 15:35:46;;;;;;;20.55;11.50;;;;;;;;;;5076653;28;20101;-85
2023/04/04 15:38:12;;;;;;;23.73;12.38;;;;;;;;;;5100054;28;20435;-84
2023/04/04 15:40:37;;;;;;;22.77;12.80;;;;;;;;;;5095122;28;20437;-85
2023/04/04 15:43:02;;;;;;;24.45;13.60;;;;;;;;;;5094773;28;20032;-83
2023/04/04 15:45:28;;;;;;;24.65;13.43;;;;;;;;;;5094689;28;20076;-86
2023/04/04 15:47:53;;;;;;;22.80;12.82;;;;;;;;;;5079370;28;20031;-83
2023/04/04 15:50:19;;;;;;;25.77;14.15;;;;;;;;;;5097380;28;20054;-83
2023/04/04 15:52:45;;;;;;;22.52;12.27;;;;;;;;;;5095048;28;20039;-85
2023/04/04 15:55:12;;;;;;;22.95;13.93;;;;;;;;;;5094669;28;20438;-83
2023/04/04 15:57:38;;;;;;;22.90;12.68;;;;;;;;;;5059734;28;20106;-85
2023/04/04 16:00:04;;;;;;;27.30;14.18;;;;;;;;;;5076428;28;20177;-86
2023/04/04 16:02:30;;;;;;;20.73;11.25;;;;;;;;;;5091315;28;20113;-86
2023/04/04 16:04:56;;;;;;;19.27;11.18;;;;;;;;;;5076334;28;20104;-84
2023/04/04 16:07:21;;;;;;;20.60;11.98;;;;;;;;;;5076125;28;20423;-84
2023/04/04 16:09:46;;;;;;;24.67;13.23;;;;;;;;;;5090710;28;20038;-82
2023/04/04 16:12:12;;;;;;;25.80;13.73;;;;;;;;;;5096780;28;20454;-83
2023/04/04 16:14:37;;;;;;;25.65;14.23;;;;;;;;;;5093947;28;20346;-83
2023/04/04 16:17:03;;;;;;;28.17;14.15;;;;;;;;;;5095147;28;20036;-84
2023/04/04 16:19:29;;;;;;;29.55;15.35;;;;;;;;;;5059243;28;20028;-85
2023/04/04 16:21:54;;;;;;;33.60;16.85;;;;;;;;;;5094166;28;20042;-83
2023/04/04 16:24:20;;;;;;;37.85;19.30;;;;;;;;;;5076418;28;20526;-85
2023/04/04 16:26:48;;;;;;;33.60;15.45;;;;;;;;;;5094323;28;20060;-85
2023/04/04 16:29:15;;;;;;;30.10;14.57;;;;;;;;;;5093884;28;20032;-85
2023/04/04 16:31:41;;;;;;;36.22;16.45;;;;;;;;;;5080247;28;20028;-83
2023/04/04 16:34:07;;;;;;;31.38;15.75;;;;;;;;;;5076988;28;20354;-84
2023/04/04 16:36:32;;;;;;;26.55;13.07;;;;;;;;;;5060946;28;20031;-84
2023/04/04 16:38:58;;;;;;;26.50;14.00;;;;;;;;;;5076860;28;20118;-84
2023/04/04 16:41:26;;;;;;;29.67;14.80;;;;;;;;;;5075684;28;20414;-84
2023/04/04 16:43:53;;;;;;;24.77;13.13;;;;;;;;;;5093804;28;20496;-85
2023/04/04 16:46:19;;;;;;;29.60;13.68;;;;;;;;;;5094275;28;20039;-83
2023/04/04 16:48:44;;;;;;;24.48;13.43;;;;;;;;;;5075939;28;20040;-84
2023/04/04 16:51:10;;;;;;;29.73;14.77;;;;;;;;;;5079873;28;20054;-82
2023/04/04 16:53:35;;;;;;;23.30;12.25;;;;;;;;;;5065878;28;20031;-83
2023/04/04 16:56:01;;;;;;;27.02;13.90;;;;;;;;;;5079601;28;20377;-84
2023/04/04 16:58:27;;;;;;;26.67;13.57;;;;;;;;;;5080130;28;20060;-84
2023/04/04 17:00:52;;;;;;;22.20;11.98;;;;;;;;;;5076934;28;20025;-84
2023/04/04 17:03:18;;;;;;;29.05;13.13;;;;;;;;;;5094205;28;20079;-83
2023/04/04 17:05:43;;;;;;;25.50;12.90;;;;;;;;;;5115244;28;20107;-84
2023/04/04 17:08:09;;;;;;;26.60;14.82;;;;;;;;;;5099844;28;20346;-84
2023/04/04 17:10:38;;;;;;;27.50;14.13;;;;;;;;;;5114011;28;20031;-85
2023/04/04 17:13:05;;;;;;;29.85;14.15;;;;;;;;;;5096480;28;20034;-84
2023/04/04 17:15:30;;;;;;;29.67;13.77;;;;;;;;;;5107981;28;20020;-83
2023/04/04 17:17:56;;;;;;;30.02;14.68;;;;;;;;;;5118141;28;20035;-84
2023/04/04 17:20:21;;;;;;;23.33;12.82;;;;;;;;;;5114211;28;20043;-84
2023/04/04 17:22:48;;;;;;;21.63;11.93;;;;;;;;;;5113980;28;20027;-84
2023/04/04 17:25:13;;;;;;;22.48;11.48;;;;;;;;;;5062532;28;20088;-83
2023/04/04 17:27:39;;;;;;;25.50;13.43;;;;;;;;;;5098164;28;20020;-83
2023/04/04 17:30:07;;;;;;;27.85;14.52;;;;;;;;;;5117627;28;20356;-84
2023/04/04 17:32:32;;;;;;;24.55;13.30;;;;;;;;;;5119456;28;20089;-83
2023/04/04 17:34:59;;;;;;;24.40;13.68;;;;;;;;;;5116883;28;20031;-83